Flight Track Log - Related Links

Times and Time Zones

All times are in EDT time to prevent confusion due to time zone crossing. See the KAP927 flight status page for this flight to view local times or setup timezone preferences in your user account.


Time Position Orientation Groundspeed Altitude Reporting Facility
EDT Latitude Longitude Course Direction KTS MPH feet Rate Location/Type
Sat 08:38:05 AM 42.7494 -73.7436 93° East 117 135 1,700  Level Boston Center
Sat 08:39:05 AM 42.7478 -73.6983 93° East 120 138 2,500 793 Climbing Boston Center
Sat 08:40:06 AM 42.7439 -73.6586 98° East 118 136 3,300 738 Climbing Boston Center
Sat 08:41:07 AM 42.7383 -73.6106 99° East 125 144 4,000 744 Climbing Boston Center
Sat 08:42:07 AM 42.7303 -73.5678 104° East 122 140 4,800 744 Climbing Boston Center
Sat 08:43:08 AM 42.7267 -73.5225 96° East 118 136 5,500 694 Climbing Boston Center
Sat 08:44:08 AM 42.7208 -73.4772 100° East 122 140 6,200 694 Climbing Boston Center
Sat 08:45:09 AM 42.7108 -73.4289 106° East 121 139 6,900 656 Climbing Boston Center
Sat 08:46:16 AM 42.7050 -73.3781 99° East 131 151 7,600 331 Climbing Boston Center
Sat 08:47:16 AM 42.6992 -73.3244 98° East 142 163 7,600  Level Boston Center
Sat 08:48:08 AM 42.6911 -73.2733 102° East 160 184 7,600  Level Boston Center
Sat 08:49:08 AM 42.6833 -73.2225 102° East 160 184 7,600 -50 Level Boston Center
Sat 08:50:08 AM 42.6753 -73.1603 100° East 155 178 7,500 -50 Descending Boston Center
Sat 08:51:08 AM 42.6694 -73.1064 98° East 155 178 7,500 50 Level Boston Center
Sat 08:52:08 AM 42.6614 -73.0442 100° East 155 178 7,600 50 Climbing Boston Center
Sat 08:53:08 AM 42.6533 -72.9961 103° East 145 167 7,600  Level Boston Center
Sat 08:54:08 AM 42.6494 -72.9397 95° East 145 167 7,600  Level Boston Center
Sat 08:55:32 AM 42.6392 -72.8719 102° East 145 167 7,600  Level Boston Center
Sat 08:56:32 AM 42.6292 -72.8014 101° East 145 167 7,600  Level Boston Center
Sat 08:57:32 AM 42.6208 -72.7447 101° East 145 167 7,600 -50 Level Boston Center
Sat 08:58:32 AM 42.6147 -72.6883 98° East 145 167 7,500 -50 Descending Boston Center
Sat 08:59:32 AM 42.6067 -72.6319 101° East 145 167 7,500  Level Boston Center
Sat 09:00:32 AM 42.5983 -72.5756 101° East 145 167 7,500  Level Boston Center
Sat 09:01:32 AM 42.5900 -72.5192 101° East 145 167 7,500  Level Boston Center
Sat 09:02:32 AM 42.5817 -72.4625 101° East 145 167 7,500  Level Boston Center
Sat 09:03:32 AM 42.5733 -72.4092 102° East 145 167 7,500  Level Boston Center
Sat 09:04:32 AM 42.5650 -72.3528 101° East 145 167 7,500  Level Boston Center
Sat 09:05:32 AM 42.5586 -72.2964 99° East 145 167 7,500  Level Boston Center
Sat 09:06:32 AM 42.5483 -72.2542 108° East 145 167 7,500  Level Boston Center
Sat 09:07:32 AM 42.5397 -72.1864 100° East 150 173 7,500  Level Boston Center
Sat 09:08:32 AM 42.5314 -72.1244 100° East 145 167 7,500  Level Boston Center
Sat 09:09:32 AM 42.5250 -72.0767 100° East 145 167 7,500  Level Boston Center
Sat 09:10:32 AM 42.5164 -72.0147 101° East 151 174 7,500 -50 Level Boston Center
Sat 09:11:32 AM 42.5078 -71.9642 103° East 146 168 7,400  Descending Boston Center
Sat 09:12:32 AM 42.5014 -71.9050 98° East 146 168 7,500 50 Climbing Boston Center
Sat 09:13:32 AM 42.4928 -71.8572 104° East 146 168 7,500 -300 Level Boston Center
Sat 09:14:32 AM 42.4903 -71.7925 93° East 146 168 6,900 -550 Descending Boston Center
Sat 09:15:32 AM 42.4878 -71.7419 94° East 156 180 6,400 -650 Descending Boston Center
Sat 09:16:32 AM 42.4875 -71.6686 90° East 158 182 5,600 -700 Descending Boston Center
Sat 09:17:32 AM 42.4850 -71.6125 93° East 158 182 5,000 950 Descending Boston Center
Sat 09:18:32 AM 42.4844 -71.5447 91° East 158 182 7,500 -450 Climbing Boston Center
Sat 09:19:32 AM 42.4881 -71.4969 84° East 153 176 4,100 -1,900 Descending Boston Center
Sat 09:20:32 AM 42.4981 -71.4319 78° East 153 176 3,700 -273 Descending Boston Center
Sat 09:21:44 AM 42.5058 -71.3783 79° East 158 182 3,500 -136 Descending Boston Center
Sat 09:22:44 AM 42.5178 -71.3078 77° East 153 176 3,400 -54 Descending Boston Center
Sat 09:23:35 AM 42.5167 -71.2667 92° East 150 173 3,400 -99 Level KA90
Sat 09:24:45 AM 42.5000 -71.2000 109° East 168 193 3,200 -290 Descending KA90
Sat 09:25:39 AM 42.4833 -71.1667 124° Southeast 162 186 2,800 -526 Descending KA90
Sat 09:26:39 AM 42.4500 -71.1167 132° Southeast 157 181 2,200 -639 Descending KA90
Sat 09:27:41 AM 42.4167 -71.0667 132° Southeast 159 183 1,500 -750 Descending KA90
Sat 09:28:39 AM 42.3833 -71.0500 160° South 160 184 700 -550 Descending KA90
Sat 09:29:41 AM 42.3500 -71.0333 160° South 122 140 400 -290 Descending KA90
Sat 09:31:00 AM 42.3500 -71.0000 270° West  Level FlightAware Approximate
Sat 09:38:00 AM 42.3630 -71.0064 270° West  Level Estimated
Sat 09:39:00 AM 42.3630 -71.0064 270° West  Level Estimated

Login

Don't have an account? Register now (free) for customized features, flight alerts, and more!